sensor_id;sensor_type;location;lat;lon;timestamp;P1;durP1;ratioP1;P2;durP2;ratioP2
31368;SDS011;18004;48.416;10.066;2022-07-18T00:02:21;2.28;;;0.85;;
31368;SDS011;18004;48.416;10.066;2022-07-18T00:04:47;3.75;;;1.00;;
31368;SDS011;18004;48.416;10.066;2022-07-18T00:07:13;1.58;;;0.98;;
31368;SDS011;18004;48.416;10.066;2022-07-18T00:09:39;2.38;;;0.85;;
31368;SDS011;18004;48.416;10.066;2022-07-18T00:12:06;2.90;;;0.88;;
31368;SDS011;18004;48.416;10.066;2022-07-18T00:14:33;0.95;;;0.82;;
31368;SDS011;18004;48.416;10.066;2022-07-18T00:17:00;2.10;;;1.00;;
31368;SDS011;18004;48.416;10.066;2022-07-18T00:19:26;2.97;;;1.00;;
31368;SDS011;18004;48.416;10.066;2022-07-18T00:21:53;3.55;;;1.17;;
31368;SDS011;18004;48.416;10.066;2022-07-18T00:24:19;0.77;;;0.70;;
31368;SDS011;18004;48.416;10.066;2022-07-18T00:26:44;1.02;;;0.93;;
31368;SDS011;18004;48.416;10.066;2022-07-18T00:29:10;1.52;;;1.10;;
31368;SDS011;18004;48.416;10.066;2022-07-18T00:31:36;1.27;;;1.00;;
31368;SDS011;18004;48.416;10.066;2022-07-18T00:34:03;2.35;;;0.88;;
31368;SDS011;18004;48.416;10.066;2022-07-18T00:36:29;1.10;;;1.00;;
31368;SDS011;18004;48.416;10.066;2022-07-18T00:38:55;1.20;;;0.95;;
31368;SDS011;18004;48.416;10.066;2022-07-18T00:41:21;3.10;;;1.05;;
31368;SDS011;18004;48.416;10.066;2022-07-18T00:43:47;1.15;;;0.95;;
31368;SDS011;18004;48.416;10.066;2022-07-18T00:46:14;1.52;;;0.90;;
31368;SDS011;18004;48.416;10.066;2022-07-18T00:48:40;2.75;;;1.35;;
31368;SDS011;18004;48.416;10.066;2022-07-18T00:51:07;1.13;;;0.95;;
31368;SDS011;18004;48.416;10.066;2022-07-18T00:53:33;4.05;;;1.02;;
31368;SDS011;18004;48.416;10.066;2022-07-18T00:55:59;3.03;;;0.98;;
31368;SDS011;18004;48.416;10.066;2022-07-18T00:58:27;1.08;;;0.98;;
31368;SDS011;18004;48.416;10.066;2022-07-18T01:00:53;1.33;;;1.00;;
31368;SDS011;18004;48.416;10.066;2022-07-18T01:03:38;1.40;;;1.10;;
31368;SDS011;18004;48.416;10.066;2022-07-18T01:06:04;2.35;;;1.10;;
31368;SDS011;18004;48.416;10.066;2022-07-18T01:08:30;3.95;;;1.15;;
31368;SDS011;18004;48.416;10.066;2022-07-18T01:10:56;1.13;;;0.90;;
31368;SDS011;18004;48.416;10.066;2022-07-18T01:13:22;1.10;;;0.95;;
31368;SDS011;18004;48.416;10.066;2022-07-18T01:15:47;1.02;;;0.93;;
31368;SDS011;18004;48.416;10.066;2022-07-18T01:18:13;3.70;;;1.02;;
31368;SDS011;18004;48.416;10.066;2022-07-18T01:20:39;1.45;;;0.90;;
31368;SDS011;18004;48.416;10.066;2022-07-18T01:23:05;1.10;;;1.00;;
31368;SDS011;18004;48.416;10.066;2022-07-18T01:25:30;1.17;;;0.90;;
31368;SDS011;18004;48.416;10.066;2022-07-18T01:27:56;1.17;;;0.90;;
31368;SDS011;18004;48.416;10.066;2022-07-18T01:30:23;4.20;;;0.90;;
31368;SDS011;18004;48.416;10.066;2022-07-18T01:32:56;1.85;;;1.02;;
31368;SDS011;18004;48.416;10.066;2022-07-18T01:35:24;3.95;;;1.25;;
31368;SDS011;18004;48.416;10.066;2022-07-18T01:37:51;1.05;;;0.98;;
31368;SDS011;18004;48.416;10.066;2022-07-18T01:40:21;1.77;;;1.00;;
31368;SDS011;18004;48.416;10.066;2022-07-18T01:42:48;1.20;;;1.10;;
31368;SDS011;18004;48.416;10.066;2022-07-18T01:45:14;1.08;;;0.80;;
31368;SDS011;18004;48.416;10.066;2022-07-18T01:47:40;2.20;;;1.00;;
31368;SDS011;18004;48.416;10.066;2022-07-18T01:50:07;1.75;;;0.93;;
31368;SDS011;18004;48.416;10.066;2022-07-18T01:52:34;1.70;;;0.85;;
31368;SDS011;18004;48.416;10.066;2022-07-18T01:55:00;1.08;;;0.98;;
31368;SDS011;18004;48.416;10.066;2022-07-18T01:57:26;1.50;;;0.80;;
31368;SDS011;18004;48.416;10.066;2022-07-18T01:59:52;0.90;;;0.77;;
31368;SDS011;18004;48.416;10.066;2022-07-18T02:02:17;1.70;;;1.00;;
31368;SDS011;18004;48.416;10.066;2022-07-18T02:04:43;1.15;;;1.05;;
31368;SDS011;18004;48.416;10.066;2022-07-18T02:07:24;2.17;;;0.93;;
31368;SDS011;18004;48.416;10.066;2022-07-18T02:09:58;1.25;;;0.90;;
31368;SDS011;18004;48.416;10.066;2022-07-18T02:12:25;0.98;;;0.88;;
31368;SDS011;18004;48.416;10.066;2022-07-18T02:14:51;0.98;;;0.88;;
31368;SDS011;18004;48.416;10.066;2022-07-18T02:17:18;1.17;;;0.90;;
31368;SDS011;18004;48.416;10.066;2022-07-18T02:19:44;1.80;;;1.08;;
31368;SDS011;18004;48.416;10.066;2022-07-18T02:22:10;5.07;;;1.15;;
31368;SDS011;18004;48.416;10.066;2022-07-18T02:24:36;1.35;;;1.00;;
31368;SDS011;18004;48.416;10.066;2022-07-18T02:27:03;0.68;;;0.68;;
31368;SDS011;18004;48.416;10.066;2022-07-18T02:29:29;1.08;;;0.90;;
31368;SDS011;18004;48.416;10.066;2022-07-18T02:31:55;1.58;;;0.98;;
31368;SDS011;18004;48.416;10.066;2022-07-18T02:34:21;0.90;;;0.85;;
31368;SDS011;18004;48.416;10.066;2022-07-18T02:36:47;1.05;;;0.95;;
31368;SDS011;18004;48.416;10.066;2022-07-18T02:39:15;2.05;;;1.00;;
31368;SDS011;18004;48.416;10.066;2022-07-18T02:41:42;1.50;;;1.02;;
31368;SDS011;18004;48.416;10.066;2022-07-18T02:44:08;1.23;;;1.13;;
31368;SDS011;18004;48.416;10.066;2022-07-18T02:46:34;0.80;;;0.80;;
31368;SDS011;18004;48.416;10.066;2022-07-18T02:49:00;1.30;;;0.98;;
31368;SDS011;18004;48.416;10.066;2022-07-18T02:51:26;2.88;;;1.27;;
31368;SDS011;18004;48.416;10.066;2022-07-18T02:53:52;1.52;;;1.20;;
31368;SDS011;18004;48.416;10.066;2022-07-18T02:56:17;2.28;;;1.30;;
31368;SDS011;18004;48.416;10.066;2022-07-18T02:58:43;1.17;;;1.08;;
31368;SDS011;18004;48.416;10.066;2022-07-18T03:01:09;2.33;;;0.95;;
31368;SDS011;18004;48.416;10.066;2022-07-18T03:03:35;2.22;;;1.10;;
31368;SDS011;18004;48.416;10.066;2022-07-18T03:06:01;1.42;;;1.10;;
31368;SDS011;18004;48.416;10.066;2022-07-18T03:08:27;1.13;;;0.95;;
31368;SDS011;18004;48.416;10.066;2022-07-18T03:10:52;2.05;;;1.40;;
31368;SDS011;18004;48.416;10.066;2022-07-18T03:13:18;1.20;;;1.10;;
31368;SDS011;18004;48.416;10.066;2022-07-18T03:15:44;1.70;;;0.80;;
31368;SDS011;18004;48.416;10.066;2022-07-18T03:18:10;1.60;;;1.25;;
31368;SDS011;18004;48.416;10.066;2022-07-18T03:20:35;1.50;;;1.20;;
31368;SDS011;18004;48.416;10.066;2022-07-18T03:23:04;2.17;;;1.10;;
31368;SDS011;18004;48.416;10.066;2022-07-18T03:25:31;1.52;;;1.05;;
31368;SDS011;18004;48.416;10.066;2022-07-18T03:27:57;1.38;;;1.08;;
31368;SDS011;18004;48.416;10.066;2022-07-18T03:30:23;1.50;;;1.00;;
31368;SDS011;18004;48.416;10.066;2022-07-18T03:32:49;3.20;;;1.02;;
31368;SDS011;18004;48.416;10.066;2022-07-18T03:35:15;1.17;;;0.80;;
31368;SDS011;18004;48.416;10.066;2022-07-18T03:37:40;1.42;;;0.93;;
31368;SDS011;18004;48.416;10.066;2022-07-18T03:40:07;1.65;;;1.05;;
31368;SDS011;18004;48.416;10.066;2022-07-18T03:42:35;0.98;;;0.90;;
31368;SDS011;18004;48.416;10.066;2022-07-18T03:45:02;2.85;;;1.10;;
31368;SDS011;18004;48.416;10.066;2022-07-18T03:47:32;1.63;;;1.30;;
31368;SDS011;18004;48.416;10.066;2022-07-18T03:49:58;1.23;;;0.77;;
31368;SDS011;18004;48.416;10.066;2022-07-18T03:52:24;1.63;;;1.00;;
31368;SDS011;18004;48.416;10.066;2022-07-18T03:54:50;1.25;;;1.00;;
31368;SDS011;18004;48.416;10.066;2022-07-18T03:57:15;1.08;;;1.00;;
31368;SDS011;18004;48.416;10.066;2022-07-18T03:59:41;1.02;;;0.90;;
31368;SDS011;18004;48.416;10.066;2022-07-18T04:02:07;1.40;;;1.00;;
31368;SDS011;18004;48.416;10.066;2022-07-18T04:04:33;1.10;;;0.90;;
31368;SDS011;18004;48.416;10.066;2022-07-18T04:06:59;1.50;;;1.00;;
31368;SDS011;18004;48.416;10.066;2022-07-18T04:09:25;3.15;;;1.15;;
31368;SDS011;18004;48.416;10.066;2022-07-18T04:11:51;2.25;;;1.00;;
31368;SDS011;18004;48.416;10.066;2022-07-18T04:14:17;1.13;;;1.00;;
31368;SDS011;18004;48.416;10.066;2022-07-18T04:16:43;1.40;;;1.00;;
31368;SDS011;18004;48.416;10.066;2022-07-18T04:19:09;3.10;;;1.52;;
31368;SDS011;18004;48.416;10.066;2022-07-18T04:21:35;1.55;;;0.98;;
31368;SDS011;18004;48.416;10.066;2022-07-18T04:24:01;2.47;;;1.00;;
31368;SDS011;18004;48.416;10.066;2022-07-18T04:26:28;1.95;;;0.90;;
31368;SDS011;18004;48.416;10.066;2022-07-18T04:28:54;1.48;;;1.05;;
31368;SDS011;18004;48.416;10.066;2022-07-18T04:31:19;2.70;;;1.38;;
31368;SDS011;18004;48.416;10.066;2022-07-18T04:33:45;1.52;;;0.90;;
31368;SDS011;18004;48.416;10.066;2022-07-18T04:36:11;2.08;;;1.48;;
31368;SDS011;18004;48.416;10.066;2022-07-18T04:38:37;4.65;;;1.35;;
31368;SDS011;18004;48.416;10.066;2022-07-18T04:41:05;1.80;;;1.27;;
31368;SDS011;18004;48.416;10.066;2022-07-18T04:43:32;3.03;;;1.30;;
31368;SDS011;18004;48.416;10.066;2022-07-18T04:45:57;3.25;;;1.42;;
31368;SDS011;18004;48.416;10.066;2022-07-18T04:48:23;1.88;;;1.20;;
31368;SDS011;18004;48.416;10.066;2022-07-18T04:50:49;2.75;;;1.17;;
31368;SDS011;18004;48.416;10.066;2022-07-18T04:53:16;1.15;;;1.05;;
31368;SDS011;18004;48.416;10.066;2022-07-18T04:55:42;3.25;;;1.33;;
31368;SDS011;18004;48.416;10.066;2022-07-18T04:58:08;1.55;;;1.38;;
31368;SDS011;18004;48.416;10.066;2022-07-18T05:00:33;2.30;;;1.20;;
31368;SDS011;18004;48.416;10.066;2022-07-18T05:02:59;1.35;;;1.05;;
31368;SDS011;18004;48.416;10.066;2022-07-18T05:05:28;2.28;;;1.25;;
31368;SDS011;18004;48.416;10.066;2022-07-18T05:07:54;3.67;;;1.63;;
31368;SDS011;18004;48.416;10.066;2022-07-18T05:10:21;2.90;;;1.20;;
31368;SDS011;18004;48.416;10.066;2022-07-18T05:12:49;1.77;;;1.40;;
31368;SDS011;18004;48.416;10.066;2022-07-18T05:15:17;2.63;;;1.17;;
31368;SDS011;18004;48.416;10.066;2022-07-18T05:17:44;2.13;;;1.33;;
31368;SDS011;18004;48.416;10.066;2022-07-18T05:20:12;2.15;;;1.23;;
31368;SDS011;18004;48.416;10.066;2022-07-18T05:22:41;6.72;;;1.33;;
31368;SDS011;18004;48.416;10.066;2022-07-18T05:25:07;2.63;;;1.23;;
31368;SDS011;18004;48.416;10.066;2022-07-18T05:27:34;3.33;;;1.20;;
31368;SDS011;18004;48.416;10.066;2022-07-18T05:30:02;6.97;;;1.60;;
31368;SDS011;18004;48.416;10.066;2022-07-18T05:32:30;1.95;;;1.58;;
31368;SDS011;18004;48.416;10.066;2022-07-18T05:34:56;3.10;;;1.45;;
31368;SDS011;18004;48.416;10.066;2022-07-18T05:37:21;2.83;;;1.10;;
31368;SDS011;18004;48.416;10.066;2022-07-18T05:39:48;1.55;;;1.25;;
31368;SDS011;18004;48.416;10.066;2022-07-18T05:42:16;1.95;;;1.00;;
31368;SDS011;18004;48.416;10.066;2022-07-18T05:44:43;2.85;;;1.13;;
31368;SDS011;18004;48.416;10.066;2022-07-18T05:47:09;4.68;;;1.08;;
31368;SDS011;18004;48.416;10.066;2022-07-18T05:49:35;2.03;;;1.17;;
31368;SDS011;18004;48.416;10.066;2022-07-18T05:52:01;2.00;;;1.27;;
31368;SDS011;18004;48.416;10.066;2022-07-18T05:54:28;3.22;;;1.27;;
31368;SDS011;18004;48.416;10.066;2022-07-18T05:56:53;3.08;;;0.77;;
31368;SDS011;18004;48.416;10.066;2022-07-18T05:59:20;1.17;;;1.00;;
31368;SDS011;18004;48.416;10.066;2022-07-18T06:01:46;2.90;;;1.13;;
31368;SDS011;18004;48.416;10.066;2022-07-18T06:04:13;1.60;;;1.15;;
31368;SDS011;18004;48.416;10.066;2022-07-18T06:06:39;1.25;;;0.75;;
31368;SDS011;18004;48.416;10.066;2022-07-18T06:09:05;3.67;;;1.13;;
31368;SDS011;18004;48.416;10.066;2022-07-18T06:11:31;1.45;;;0.90;;
31368;SDS011;18004;48.416;10.066;2022-07-18T06:13:57;7.43;;;1.30;;
31368;SDS011;18004;48.416;10.066;2022-07-18T06:16:23;1.17;;;0.80;;
31368;SDS011;18004;48.416;10.066;2022-07-18T06:18:49;3.65;;;1.10;;
31368;SDS011;18004;48.416;10.066;2022-07-18T06:21:15;1.63;;;1.23;;
31368;SDS011;18004;48.416;10.066;2022-07-18T06:23:41;1.45;;;1.17;;
31368;SDS011;18004;48.416;10.066;2022-07-18T06:26:06;1.58;;;0.82;;
31368;SDS011;18004;48.416;10.066;2022-07-18T06:28:32;1.95;;;0.75;;
31368;SDS011;18004;48.416;10.066;2022-07-18T06:30:58;1.17;;;0.80;;
31368;SDS011;18004;48.416;10.066;2022-07-18T06:33:24;2.05;;;1.13;;
31368;SDS011;18004;48.416;10.066;2022-07-18T06:35:49;4.78;;;0.88;;
31368;SDS011;18004;48.416;10.066;2022-07-18T06:38:15;1.27;;;0.85;;
31368;SDS011;18004;48.416;10.066;2022-07-18T06:40:42;1.50;;;0.60;;
31368;SDS011;18004;48.416;10.066;2022-07-18T06:43:08;1.33;;;0.82;;
31368;SDS011;18004;48.416;10.066;2022-07-18T06:45:34;1.38;;;0.70;;
31368;SDS011;18004;48.416;10.066;2022-07-18T06:48:00;2.08;;;0.52;;
31368;SDS011;18004;48.416;10.066;2022-07-18T06:50:26;2.05;;;0.75;;
31368;SDS011;18004;48.416;10.066;2022-07-18T06:52:52;0.32;;;0.32;;
31368;SDS011;18004;48.416;10.066;2022-07-18T06:55:18;1.40;;;0.73;;
31368;SDS011;18004;48.416;10.066;2022-07-18T06:57:44;1.35;;;0.70;;
31368;SDS011;18004;48.416;10.066;2022-07-18T07:00:11;1.92;;;0.98;;
31368;SDS011;18004;48.416;10.066;2022-07-18T07:02:45;1.48;;;0.60;;
31368;SDS011;18004;48.416;10.066;2022-07-18T07:05:13;1.48;;;0.65;;
31368;SDS011;18004;48.416;10.066;2022-07-18T07:07:40;1.65;;;0.98;;
31368;SDS011;18004;48.416;10.066;2022-07-18T07:10:06;1.70;;;0.63;;
31368;SDS011;18004;48.416;10.066;2022-07-18T07:12:39;0.75;;;0.60;;
31368;SDS011;18004;48.416;10.066;2022-07-18T07:15:06;3.28;;;0.77;;
31368;SDS011;18004;48.416;10.066;2022-07-18T07:17:33;1.48;;;0.70;;
31368;SDS011;18004;48.416;10.066;2022-07-18T07:19:59;1.35;;;0.63;;
31368;SDS011;18004;48.416;10.066;2022-07-18T07:22:25;1.50;;;0.52;;
31368;SDS011;18004;48.416;10.066;2022-07-18T07:24:51;1.00;;;0.80;;
31368;SDS011;18004;48.416;10.066;2022-07-18T07:27:16;1.48;;;0.70;;
31368;SDS011;18004;48.416;10.066;2022-07-18T07:29:45;0.80;;;0.70;;
31368;SDS011;18004;48.416;10.066;2022-07-18T07:32:11;2.33;;;0.60;;
31368;SDS011;18004;48.416;10.066;2022-07-18T07:34:36;4.03;;;0.77;;
31368;SDS011;18004;48.416;10.066;2022-07-18T07:37:02;3.28;;;0.60;;
31368;SDS011;18004;48.416;10.066;2022-07-18T07:39:28;1.67;;;0.80;;
31368;SDS011;18004;48.416;10.066;2022-07-18T07:41:54;2.65;;;0.70;;
31368;SDS011;18004;48.416;10.066;2022-07-18T07:44:20;1.77;;;0.60;;
31368;SDS011;18004;48.416;10.066;2022-07-18T07:46:49;1.23;;;0.63;;
31368;SDS011;18004;48.416;10.066;2022-07-18T07:49:16;1.10;;;0.60;;
31368;SDS011;18004;48.416;10.066;2022-07-18T07:52:25;1.40;;;0.65;;
31368;SDS011;18004;48.416;10.066;2022-07-18T07:55:18;1.63;;;0.70;;
31368;SDS011;18004;48.416;10.066;2022-07-18T07:57:47;0.65;;;0.63;;
31368;SDS011;18004;48.416;10.066;2022-07-18T08:00:14;0.52;;;0.52;;
31368;SDS011;18004;48.416;10.066;2022-07-18T08:03:02;0.52;;;0.52;;
31368;SDS011;18004;48.416;10.066;2022-07-18T08:05:31;0.88;;;0.52;;
31368;SDS011;18004;48.416;10.066;2022-07-18T08:08:03;1.05;;;0.70;;
31368;SDS011;18004;48.416;10.066;2022-07-18T08:10:52;2.88;;;0.80;;
31368;SDS011;18004;48.416;10.066;2022-07-18T08:13:18;1.88;;;0.70;;
31368;SDS011;18004;48.416;10.066;2022-07-18T08:15:45;1.02;;;0.60;;
31368;SDS011;18004;48.416;10.066;2022-07-18T08:18:14;0.60;;;0.60;;
31368;SDS011;18004;48.416;10.066;2022-07-18T08:20:43;2.35;;;0.60;;
31368;SDS011;18004;48.416;10.066;2022-07-18T08:24:28;0.80;;;0.50;;
31368;SDS011;18004;48.416;10.066;2022-07-18T08:27:21;1.10;;;0.73;;
31368;SDS011;18004;48.416;10.066;2022-07-18T08:29:55;1.55;;;0.68;;
31368;SDS011;18004;48.416;10.066;2022-07-18T08:32:30;1.20;;;0.77;;
31368;SDS011;18004;48.416;10.066;2022-07-18T08:37:33;1.73;;;0.70;;
31368;SDS011;18004;48.416;10.066;2022-07-18T08:39:59;1.17;;;0.80;;
31368;SDS011;18004;48.416;10.066;2022-07-18T08:42:26;0.88;;;0.70;;
31368;SDS011;18004;48.416;10.066;2022-07-18T09:03:44;5.30;;;0.88;;
31368;SDS011;18004;48.416;10.066;2022-07-18T12:17:30;0.47;;;0.40;;
31368;SDS011;18004;48.416;10.066;2022-07-18T13:57:07;0.60;;;0.60;;
31368;SDS011;18004;48.416;10.066;2022-07-18T15:45:43;0.63;;;0.63;;
31368;SDS011;18004;48.416;10.066;2022-07-18T16:23:42;3.53;;;0.57;;
31368;SDS011;18004;48.416;10.066;2022-07-18T18:16:24;0.73;;;0.60;;
31368;SDS011;18004;48.416;10.066;2022-07-18T19:02:22;1.30;;;0.98;;
31368;SDS011;18004;48.416;10.066;2022-07-18T20:37:14;3.40;;;0.80;;
31368;SDS011;18004;48.416;10.066;2022-07-18T20:39:40;1.20;;;0.98;;
31368;SDS011;18004;48.416;10.066;2022-07-18T20:42:34;0.80;;;0.80;;
31368;SDS011;18004;48.416;10.066;2022-07-18T20:48:10;3.13;;;1.00;;
31368;SDS011;18004;48.416;10.066;2022-07-18T20:50:37;2.78;;;0.93;;
31368;SDS011;18004;48.416;10.066;2022-07-18T20:53:23;2.33;;;1.70;;
31368;SDS011;18004;48.416;10.066;2022-07-18T20:56:52;2.65;;;1.45;;
31368;SDS011;18004;48.416;10.066;2022-07-18T21:02:19;1.60;;;1.00;;
31368;SDS011;18004;48.416;10.066;2022-07-18T21:05:33;2.55;;;0.82;;
31368;SDS011;18004;48.416;10.066;2022-07-18T21:07:59;1.50;;;0.95;;
31368;SDS011;18004;48.416;10.066;2022-07-18T21:10:42;2.75;;;0.93;;
31368;SDS011;18004;48.416;10.066;2022-07-18T21:13:37;4.30;;;0.80;;
31368;SDS011;18004;48.416;10.066;2022-07-18T21:16:28;3.10;;;1.00;;
31368;SDS011;18004;48.416;10.066;2022-07-18T21:25:09;3.17;;;1.33;;
31368;SDS011;18004;48.416;10.066;2022-07-18T21:27:37;0.70;;;0.70;;
31368;SDS011;18004;48.416;10.066;2022-07-18T21:30:04;2.58;;;0.75;;
31368;SDS011;18004;48.416;10.066;2022-07-18T21:32:34;3.35;;;1.08;;
31368;SDS011;18004;48.416;10.066;2022-07-18T21:35:00;3.35;;;1.42;;
31368;SDS011;18004;48.416;10.066;2022-07-18T21:37:29;3.63;;;1.08;;
31368;SDS011;18004;48.416;10.066;2022-07-18T21:39:55;6.13;;;1.13;;
31368;SDS011;18004;48.416;10.066;2022-07-18T21:42:28;1.90;;;0.88;;
31368;SDS011;18004;48.416;10.066;2022-07-18T21:44:54;1.67;;;0.80;;
31368;SDS011;18004;48.416;10.066;2022-07-18T21:47:24;4.63;;;1.23;;
31368;SDS011;18004;48.416;10.066;2022-07-18T21:49:51;1.30;;;0.75;;
31368;SDS011;18004;48.416;10.066;2022-07-18T21:52:23;4.78;;;0.88;;
31368;SDS011;18004;48.416;10.066;2022-07-18T21:54:50;9.10;;;1.33;;
31368;SDS011;18004;48.416;10.066;2022-07-18T21:57:17;1.20;;;0.95;;
31368;SDS011;18004;48.416;10.066;2022-07-18T21:59:48;4.40;;;1.40;;
31368;SDS011;18004;48.416;10.066;2022-07-18T22:02:14;1.77;;;0.98;;
31368;SDS011;18004;48.416;10.066;2022-07-18T22:04:44;1.25;;;1.15;;
31368;SDS011;18004;48.416;10.066;2022-07-18T22:07:20;1.10;;;0.80;;
31368;SDS011;18004;48.416;10.066;2022-07-18T22:09:47;1.77;;;0.95;;
31368;SDS011;18004;48.416;10.066;2022-07-18T22:12:13;2.25;;;0.73;;
31368;SDS011;18004;48.416;10.066;2022-07-18T22:14:39;0.95;;;0.65;;
31368;SDS011;18004;48.416;10.066;2022-07-18T22:17:31;2.60;;;0.95;;
31368;SDS011;18004;48.416;10.066;2022-07-18T22:20:10;2.25;;;0.70;;
31368;SDS011;18004;48.416;10.066;2022-07-18T22:22:38;2.10;;;1.10;;
31368;SDS011;18004;48.416;10.066;2022-07-18T22:25:10;0.90;;;0.75;;
31368;SDS011;18004;48.416;10.066;2022-07-18T22:27:36;0.80;;;0.75;;
31368;SDS011;18004;48.416;10.066;2022-07-18T22:30:03;1.25;;;0.90;;
31368;SDS011;18004;48.416;10.066;2022-07-18T22:32:30;1.20;;;1.08;;
31368;SDS011;18004;48.416;10.066;2022-07-18T22:34:56;3.42;;;0.70;;
31368;SDS011;18004;48.416;10.066;2022-07-18T22:37:22;3.88;;;1.10;;
31368;SDS011;18004;48.416;10.066;2022-07-18T22:39:47;2.90;;;0.95;;
31368;SDS011;18004;48.416;10.066;2022-07-18T22:42:13;1.05;;;0.90;;
31368;SDS011;18004;48.416;10.066;2022-07-18T22:44:39;3.40;;;0.77;;
31368;SDS011;18004;48.416;10.066;2022-07-18T22:47:05;1.85;;;0.80;;
31368;SDS011;18004;48.416;10.066;2022-07-18T22:49:32;1.92;;;1.10;;
31368;SDS011;18004;48.416;10.066;2022-07-18T22:51:57;1.35;;;1.00;;
31368;SDS011;18004;48.416;10.066;2022-07-18T22:54:23;1.15;;;0.77;;
31368;SDS011;18004;48.416;10.066;2022-07-18T22:56:49;4.68;;;1.10;;
31368;SDS011;18004;48.416;10.066;2022-07-18T22:59:15;1.15;;;0.90;;
31368;SDS011;18004;48.416;10.066;2022-07-18T23:01:41;4.00;;;1.08;;
31368;SDS011;18004;48.416;10.066;2022-07-18T23:04:07;1.70;;;0.95;;
31368;SDS011;18004;48.416;10.066;2022-07-18T23:06:32;1.20;;;0.95;;
31368;SDS011;18004;48.416;10.066;2022-07-18T23:09:01;1.27;;;0.98;;
31368;SDS011;18004;48.416;10.066;2022-07-18T23:11:26;3.30;;;1.10;;
31368;SDS011;18004;48.416;10.066;2022-07-18T23:13:52;2.67;;;1.10;;
31368;SDS011;18004;48.416;10.066;2022-07-18T23:16:18;4.07;;;1.40;;
31368;SDS011;18004;48.416;10.066;2022-07-18T23:18:44;2.22;;;1.58;;
31368;SDS011;18004;48.416;10.066;2022-07-18T23:21:10;5.40;;;1.70;;
31368;SDS011;18004;48.416;10.066;2022-07-18T23:23:35;3.03;;;1.45;;
31368;SDS011;18004;48.416;10.066;2022-07-18T23:26:01;4.60;;;1.30;;
31368;SDS011;18004;48.416;10.066;2022-07-18T23:28:27;2.20;;;1.80;;
31368;SDS011;18004;48.416;10.066;2022-07-18T23:30:53;5.65;;;1.33;;
31368;SDS011;18004;48.416;10.066;2022-07-18T23:33:18;1.80;;;1.25;;
31368;SDS011;18004;48.416;10.066;2022-07-18T23:35:44;2.03;;;1.27;;
31368;SDS011;18004;48.416;10.066;2022-07-18T23:38:10;7.03;;;1.52;;
31368;SDS011;18004;48.416;10.066;2022-07-18T23:40:36;3.95;;;2.15;;
31368;SDS011;18004;48.416;10.066;2022-07-18T23:43:02;5.13;;;1.77;;
31368;SDS011;18004;48.416;10.066;2022-07-18T23:45:28;2.60;;;1.83;;
31368;SDS011;18004;48.416;10.066;2022-07-18T23:47:53;3.28;;;1.55;;
31368;SDS011;18004;48.416;10.066;2022-07-18T23:50:19;2.47;;;1.15;;
31368;SDS011;18004;48.416;10.066;2022-07-18T23:52:46;5.40;;;1.30;;
31368;SDS011;18004;48.416;10.066;2022-07-18T23:55:13;2.97;;;1.25;;
31368;SDS011;18004;48.416;10.066;2022-07-18T23:57:40;3.30;;;1.45;;
